sensor_id;sensor_type;location;lat;lon;timestamp;P1;durP1;ratioP1;P2;durP2;ratioP2
35909;SDS011;22004;49.120;-0.200;2023-04-07T00:01:15;8.25;;;2.42;;
35909;SDS011;22004;49.120;-0.200;2023-04-07T00:03:40;10.63;;;2.50;;
35909;SDS011;22004;49.120;-0.200;2023-04-07T00:06:06;13.75;;;3.13;;
35909;SDS011;22004;49.120;-0.200;2023-04-07T00:08:31;14.45;;;3.05;;
35909;SDS011;22004;49.120;-0.200;2023-04-07T00:10:56;13.95;;;2.20;;
35909;SDS011;22004;49.120;-0.200;2023-04-07T00:13:22;12.98;;;2.88;;
35909;SDS011;22004;49.120;-0.200;2023-04-07T00:15:47;13.52;;;2.80;;
35909;SDS011;22004;49.120;-0.200;2023-04-07T00:18:13;18.23;;;2.65;;
35909;SDS011;22004;49.120;-0.200;2023-04-07T00:20:39;14.43;;;2.90;;
35909;SDS011;22004;49.120;-0.200;2023-04-07T00:23:04;16.27;;;2.45;;
35909;SDS011;22004;49.120;-0.200;2023-04-07T00:25:29;13.52;;;2.97;;
35909;SDS011;22004;49.120;-0.200;2023-04-07T00:27:55;12.63;;;2.47;;
35909;SDS011;22004;49.120;-0.200;2023-04-07T00:30:20;9.75;;;2.38;;
35909;SDS011;22004;49.120;-0.200;2023-04-07T00:32:45;9.70;;;2.22;;
35909;SDS011;22004;49.120;-0.200;2023-04-07T00:35:11;11.95;;;2.63;;
35909;SDS011;22004;49.120;-0.200;2023-04-07T00:37:36;13.02;;;2.75;;
35909;SDS011;22004;49.120;-0.200;2023-04-07T00:40:02;10.00;;;2.97;;
35909;SDS011;22004;49.120;-0.200;2023-04-07T00:42:28;17.67;;;2.58;;
35909;SDS011;22004;49.120;-0.200;2023-04-07T00:44:53;10.18;;;2.30;;
35909;SDS011;22004;49.120;-0.200;2023-04-07T00:47:19;12.05;;;2.25;;
35909;SDS011;22004;49.120;-0.200;2023-04-07T00:49:44;11.10;;;2.22;;
35909;SDS011;22004;49.120;-0.200;2023-04-07T00:52:10;12.15;;;3.00;;
35909;SDS011;22004;49.120;-0.200;2023-04-07T00:54:36;14.85;;;2.78;;
35909;SDS011;22004;49.120;-0.200;2023-04-07T00:57:03;12.50;;;3.00;;
35909;SDS011;22004;49.120;-0.200;2023-04-07T00:59:28;12.43;;;2.42;;
35909;SDS011;22004;49.120;-0.200;2023-04-07T01:02:15;10.27;;;2.72;;
35909;SDS011;22004;49.120;-0.200;2023-04-07T01:07:42;14.77;;;2.60;;
35909;SDS011;22004;49.120;-0.200;2023-04-07T01:10:15;14.98;;;2.40;;
35909;SDS011;22004;49.120;-0.200;2023-04-07T01:12:52;14.05;;;2.47;;
35909;SDS011;22004;49.120;-0.200;2023-04-07T01:15:24;10.60;;;2.72;;
35909;SDS011;22004;49.120;-0.200;2023-04-07T01:17:54;13.15;;;2.92;;
35909;SDS011;22004;49.120;-0.200;2023-04-07T01:20:25;12.93;;;2.50;;
35909;SDS011;22004;49.120;-0.200;2023-04-07T01:22:57;12.90;;;2.65;;
35909;SDS011;22004;49.120;-0.200;2023-04-07T01:30:30;12.52;;;2.80;;
35909;SDS011;22004;49.120;-0.200;2023-04-07T01:32:57;12.40;;;2.47;;
35909;SDS011;22004;49.120;-0.200;2023-04-07T01:35:24;14.43;;;2.40;;
35909;SDS011;22004;49.120;-0.200;2023-04-07T01:37:53;12.20;;;2.67;;
35909;SDS011;22004;49.120;-0.200;2023-04-07T01:40:20;12.23;;;3.20;;
35909;SDS011;22004;49.120;-0.200;2023-04-07T01:42:45;13.30;;;2.47;;
35909;SDS011;22004;49.120;-0.200;2023-04-07T01:45:12;11.80;;;2.33;;
35909;SDS011;22004;49.120;-0.200;2023-04-07T01:47:40;14.45;;;2.50;;
35909;SDS011;22004;49.120;-0.200;2023-04-07T01:50:06;11.57;;;2.70;;
35909;SDS011;22004;49.120;-0.200;2023-04-07T01:52:34;9.15;;;2.17;;
35909;SDS011;22004;49.120;-0.200;2023-04-07T01:55:00;16.67;;;2.50;;
35909;SDS011;22004;49.120;-0.200;2023-04-07T01:57:29;14.13;;;2.88;;
35909;SDS011;22004;49.120;-0.200;2023-04-07T01:59:54;9.90;;;2.13;;
35909;SDS011;22004;49.120;-0.200;2023-04-07T02:02:20;12.55;;;2.40;;
35909;SDS011;22004;49.120;-0.200;2023-04-07T02:07:29;13.68;;;2.63;;
35909;SDS011;22004;49.120;-0.200;2023-04-07T02:10:15;8.98;;;2.15;;
35909;SDS011;22004;49.120;-0.200;2023-04-07T02:12:43;12.25;;;2.50;;
35909;SDS011;22004;49.120;-0.200;2023-04-07T02:15:11;9.75;;;2.25;;
35909;SDS011;22004;49.120;-0.200;2023-04-07T02:17:38;13.98;;;2.55;;
35909;SDS011;22004;49.120;-0.200;2023-04-07T02:20:08;13.20;;;2.28;;
35909;SDS011;22004;49.120;-0.200;2023-04-07T02:22:37;9.55;;;2.55;;
35909;SDS011;22004;49.120;-0.200;2023-04-07T02:25:19;12.55;;;2.15;;
35909;SDS011;22004;49.120;-0.200;2023-04-07T02:27:45;9.98;;;2.20;;
35909;SDS011;22004;49.120;-0.200;2023-04-07T02:30:11;9.10;;;1.98;;
35909;SDS011;22004;49.120;-0.200;2023-04-07T02:32:36;14.05;;;2.30;;
35909;SDS011;22004;49.120;-0.200;2023-04-07T02:35:02;11.18;;;2.88;;
35909;SDS011;22004;49.120;-0.200;2023-04-07T02:37:28;15.73;;;2.53;;
35909;SDS011;22004;49.120;-0.200;2023-04-07T02:39:53;10.13;;;2.00;;
35909;SDS011;22004;49.120;-0.200;2023-04-07T02:42:18;8.43;;;2.65;;
35909;SDS011;22004;49.120;-0.200;2023-04-07T02:44:44;8.38;;;2.38;;
35909;SDS011;22004;49.120;-0.200;2023-04-07T02:47:09;11.50;;;2.45;;
35909;SDS011;22004;49.120;-0.200;2023-04-07T02:49:35;16.90;;;2.50;;
35909;SDS011;22004;49.120;-0.200;2023-04-07T02:52:00;11.07;;;2.58;;
35909;SDS011;22004;49.120;-0.200;2023-04-07T02:54:25;11.00;;;2.20;;
35909;SDS011;22004;49.120;-0.200;2023-04-07T02:56:51;11.60;;;2.10;;
35909;SDS011;22004;49.120;-0.200;2023-04-07T02:59:16;8.13;;;1.90;;
35909;SDS011;22004;49.120;-0.200;2023-04-07T03:01:42;11.43;;;2.13;;
35909;SDS011;22004;49.120;-0.200;2023-04-07T03:04:07;9.02;;;2.30;;
35909;SDS011;22004;49.120;-0.200;2023-04-07T03:06:32;9.23;;;2.30;;
35909;SDS011;22004;49.120;-0.200;2023-04-07T03:08:58;8.48;;;2.65;;
35909;SDS011;22004;49.120;-0.200;2023-04-07T03:11:23;9.68;;;2.10;;
35909;SDS011;22004;49.120;-0.200;2023-04-07T03:13:48;9.63;;;2.10;;
35909;SDS011;22004;49.120;-0.200;2023-04-07T03:16:14;8.95;;;2.10;;
35909;SDS011;22004;49.120;-0.200;2023-04-07T03:18:39;9.27;;;2.33;;
35909;SDS011;22004;49.120;-0.200;2023-04-07T03:21:04;12.50;;;2.30;;
35909;SDS011;22004;49.120;-0.200;2023-04-07T03:23:30;8.98;;;2.22;;
35909;SDS011;22004;49.120;-0.200;2023-04-07T03:25:55;6.93;;;2.28;;
35909;SDS011;22004;49.120;-0.200;2023-04-07T03:28:22;7.22;;;2.03;;
35909;SDS011;22004;49.120;-0.200;2023-04-07T03:30:47;9.20;;;1.92;;
35909;SDS011;22004;49.120;-0.200;2023-04-07T03:33:12;9.02;;;2.58;;
35909;SDS011;22004;49.120;-0.200;2023-04-07T03:35:38;9.05;;;2.00;;
35909;SDS011;22004;49.120;-0.200;2023-04-07T03:38:03;7.20;;;1.83;;
35909;SDS011;22004;49.120;-0.200;2023-04-07T03:40:28;7.43;;;1.92;;
35909;SDS011;22004;49.120;-0.200;2023-04-07T03:42:54;9.60;;;2.13;;
35909;SDS011;22004;49.120;-0.200;2023-04-07T03:45:19;11.80;;;2.33;;
35909;SDS011;22004;49.120;-0.200;2023-04-07T03:47:45;10.05;;;2.03;;
35909;SDS011;22004;49.120;-0.200;2023-04-07T03:50:10;5.88;;;1.77;;
35909;SDS011;22004;49.120;-0.200;2023-04-07T03:52:35;8.32;;;2.25;;
35909;SDS011;22004;49.120;-0.200;2023-04-07T03:55:01;7.95;;;2.10;;
35909;SDS011;22004;49.120;-0.200;2023-04-07T03:57:26;8.40;;;2.08;;
35909;SDS011;22004;49.120;-0.200;2023-04-07T03:59:51;6.95;;;2.20;;
35909;SDS011;22004;49.120;-0.200;2023-04-07T04:02:17;7.20;;;2.20;;
35909;SDS011;22004;49.120;-0.200;2023-04-07T04:04:43;9.07;;;2.45;;
35909;SDS011;22004;49.120;-0.200;2023-04-07T04:07:08;10.55;;;2.22;;
35909;SDS011;22004;49.120;-0.200;2023-04-07T04:09:33;7.95;;;2.10;;
35909;SDS011;22004;49.120;-0.200;2023-04-07T04:11:59;8.50;;;2.10;;
35909;SDS011;22004;49.120;-0.200;2023-04-07T04:14:25;8.23;;;2.42;;
35909;SDS011;22004;49.120;-0.200;2023-04-07T04:16:50;9.80;;;1.92;;
35909;SDS011;22004;49.120;-0.200;2023-04-07T04:19:15;8.02;;;2.20;;
35909;SDS011;22004;49.120;-0.200;2023-04-07T04:21:41;7.68;;;2.10;;
35909;SDS011;22004;49.120;-0.200;2023-04-07T04:24:06;6.15;;;1.98;;
35909;SDS011;22004;49.120;-0.200;2023-04-07T04:26:32;5.80;;;1.73;;
35909;SDS011;22004;49.120;-0.200;2023-04-07T04:28:57;7.13;;;1.92;;
35909;SDS011;22004;49.120;-0.200;2023-04-07T04:31:22;7.05;;;1.95;;
35909;SDS011;22004;49.120;-0.200;2023-04-07T04:33:48;5.63;;;2.00;;
35909;SDS011;22004;49.120;-0.200;2023-04-07T04:36:13;7.22;;;2.17;;
35909;SDS011;22004;49.120;-0.200;2023-04-07T04:38:38;5.90;;;1.80;;
35909;SDS011;22004;49.120;-0.200;2023-04-07T04:41:04;6.35;;;1.95;;
35909;SDS011;22004;49.120;-0.200;2023-04-07T04:43:29;7.47;;;1.83;;
35909;SDS011;22004;49.120;-0.200;2023-04-07T04:45:55;5.15;;;1.58;;
35909;SDS011;22004;49.120;-0.200;2023-04-07T04:48:21;8.38;;;2.13;;
35909;SDS011;22004;49.120;-0.200;2023-04-07T04:50:46;8.10;;;1.80;;
35909;SDS011;22004;49.120;-0.200;2023-04-07T04:53:12;9.45;;;2.40;;
35909;SDS011;22004;49.120;-0.200;2023-04-07T04:55:37;8.07;;;1.90;;
35909;SDS011;22004;49.120;-0.200;2023-04-07T04:58:04;7.45;;;1.67;;
35909;SDS011;22004;49.120;-0.200;2023-04-07T05:00:30;4.13;;;1.50;;
35909;SDS011;22004;49.120;-0.200;2023-04-07T05:02:55;8.45;;;2.33;;
35909;SDS011;22004;49.120;-0.200;2023-04-07T05:05:21;11.68;;;2.10;;
35909;SDS011;22004;49.120;-0.200;2023-04-07T05:07:46;4.22;;;1.90;;
35909;SDS011;22004;49.120;-0.200;2023-04-07T05:10:11;6.95;;;2.20;;
35909;SDS011;22004;49.120;-0.200;2023-04-07T05:12:37;6.53;;;1.90;;
35909;SDS011;22004;49.120;-0.200;2023-04-07T05:15:03;10.68;;;2.22;;
35909;SDS011;22004;49.120;-0.200;2023-04-07T05:17:28;6.72;;;2.53;;
35909;SDS011;22004;49.120;-0.200;2023-04-07T05:19:53;5.57;;;2.03;;
35909;SDS011;22004;49.120;-0.200;2023-04-07T05:22:19;5.70;;;2.28;;
35909;SDS011;22004;49.120;-0.200;2023-04-07T05:24:44;10.82;;;2.70;;
35909;SDS011;22004;49.120;-0.200;2023-04-07T05:27:10;6.90;;;1.85;;
35909;SDS011;22004;49.120;-0.200;2023-04-07T05:29:35;5.95;;;1.90;;
35909;SDS011;22004;49.120;-0.200;2023-04-07T05:32:00;4.50;;;2.03;;
35909;SDS011;22004;49.120;-0.200;2023-04-07T05:34:26;7.40;;;2.13;;
35909;SDS011;22004;49.120;-0.200;2023-04-07T05:36:52;9.05;;;2.22;;
35909;SDS011;22004;49.120;-0.200;2023-04-07T05:39:17;8.80;;;3.00;;
35909;SDS011;22004;49.120;-0.200;2023-04-07T05:41:42;5.95;;;1.92;;
35909;SDS011;22004;49.120;-0.200;2023-04-07T05:44:08;8.07;;;2.10;;
35909;SDS011;22004;49.120;-0.200;2023-04-07T05:46:33;7.03;;;1.95;;
35909;SDS011;22004;49.120;-0.200;2023-04-07T05:48:58;5.07;;;1.95;;
35909;SDS011;22004;49.120;-0.200;2023-04-07T05:51:24;5.07;;;1.70;;
35909;SDS011;22004;49.120;-0.200;2023-04-07T05:53:50;7.70;;;1.90;;
35909;SDS011;22004;49.120;-0.200;2023-04-07T05:56:16;5.13;;;1.95;;
35909;SDS011;22004;49.120;-0.200;2023-04-07T05:58:41;5.97;;;2.05;;
35909;SDS011;22004;49.120;-0.200;2023-04-07T06:01:07;6.95;;;1.77;;
35909;SDS011;22004;49.120;-0.200;2023-04-07T06:03:32;5.47;;;2.08;;
35909;SDS011;22004;49.120;-0.200;2023-04-07T06:05:57;5.57;;;2.33;;
35909;SDS011;22004;49.120;-0.200;2023-04-07T06:08:23;6.38;;;2.03;;
35909;SDS011;22004;49.120;-0.200;2023-04-07T06:10:48;3.97;;;2.03;;
35909;SDS011;22004;49.120;-0.200;2023-04-07T06:13:13;5.47;;;2.00;;
35909;SDS011;22004;49.120;-0.200;2023-04-07T06:15:39;4.40;;;2.10;;
35909;SDS011;22004;49.120;-0.200;2023-04-07T06:18:04;4.55;;;1.75;;
35909;SDS011;22004;49.120;-0.200;2023-04-07T06:20:29;5.78;;;1.80;;
35909;SDS011;22004;49.120;-0.200;2023-04-07T06:22:55;9.10;;;2.42;;
35909;SDS011;22004;49.120;-0.200;2023-04-07T06:25:20;4.72;;;1.95;;
35909;SDS011;22004;49.120;-0.200;2023-04-07T06:27:46;3.55;;;1.83;;
35909;SDS011;22004;49.120;-0.200;2023-04-07T06:30:11;8.27;;;1.73;;
35909;SDS011;22004;49.120;-0.200;2023-04-07T06:32:37;6.78;;;2.15;;
35909;SDS011;22004;49.120;-0.200;2023-04-07T06:35:02;5.78;;;2.00;;
35909;SDS011;22004;49.120;-0.200;2023-04-07T06:37:28;5.75;;;2.00;;
35909;SDS011;22004;49.120;-0.200;2023-04-07T06:39:53;3.35;;;1.60;;
35909;SDS011;22004;49.120;-0.200;2023-04-07T06:42:19;5.63;;;1.88;;
35909;SDS011;22004;49.120;-0.200;2023-04-07T06:44:44;6.40;;;2.20;;
35909;SDS011;22004;49.120;-0.200;2023-04-07T06:47:09;5.63;;;1.92;;
35909;SDS011;22004;49.120;-0.200;2023-04-07T06:49:35;4.15;;;1.88;;
35909;SDS011;22004;49.120;-0.200;2023-04-07T06:52:01;3.65;;;1.73;;
35909;SDS011;22004;49.120;-0.200;2023-04-07T06:54:26;11.32;;;2.08;;
35909;SDS011;22004;49.120;-0.200;2023-04-07T06:56:51;5.80;;;1.95;;
35909;SDS011;22004;49.120;-0.200;2023-04-07T06:59:17;4.75;;;1.60;;
35909;SDS011;22004;49.120;-0.200;2023-04-07T07:01:42;5.57;;;2.22;;
35909;SDS011;22004;49.120;-0.200;2023-04-07T07:04:09;6.07;;;1.75;;
35909;SDS011;22004;49.120;-0.200;2023-04-07T07:06:34;6.72;;;1.80;;
35909;SDS011;22004;49.120;-0.200;2023-04-07T07:09:00;4.65;;;1.85;;
35909;SDS011;22004;49.120;-0.200;2023-04-07T07:11:27;6.03;;;1.80;;
35909;SDS011;22004;49.120;-0.200;2023-04-07T07:13:52;7.00;;;2.03;;
35909;SDS011;22004;49.120;-0.200;2023-04-07T07:16:18;5.88;;;2.13;;
35909;SDS011;22004;49.120;-0.200;2023-04-07T07:18:43;6.38;;;2.03;;
35909;SDS011;22004;49.120;-0.200;2023-04-07T07:21:08;5.88;;;1.95;;
35909;SDS011;22004;49.120;-0.200;2023-04-07T07:23:34;6.65;;;2.17;;
35909;SDS011;22004;49.120;-0.200;2023-04-07T07:25:59;9.95;;;2.17;;
35909;SDS011;22004;49.120;-0.200;2023-04-07T07:28:25;5.78;;;1.80;;
35909;SDS011;22004;49.120;-0.200;2023-04-07T07:30:50;9.90;;;3.03;;
35909;SDS011;22004;49.120;-0.200;2023-04-07T07:33:15;5.13;;;1.73;;
35909;SDS011;22004;49.120;-0.200;2023-04-07T07:35:41;5.00;;;1.90;;
35909;SDS011;22004;49.120;-0.200;2023-04-07T07:38:06;9.90;;;2.15;;
35909;SDS011;22004;49.120;-0.200;2023-04-07T07:40:32;7.40;;;2.03;;
35909;SDS011;22004;49.120;-0.200;2023-04-07T07:42:58;9.63;;;2.22;;
35909;SDS011;22004;49.120;-0.200;2023-04-07T07:45:24;5.70;;;2.08;;
35909;SDS011;22004;49.120;-0.200;2023-04-07T07:47:49;5.78;;;1.98;;
35909;SDS011;22004;49.120;-0.200;2023-04-07T07:50:15;10.90;;;2.00;;
35909;SDS011;22004;49.120;-0.200;2023-04-07T07:52:40;10.95;;;2.28;;
35909;SDS011;22004;49.120;-0.200;2023-04-07T07:55:07;10.70;;;2.63;;
35909;SDS011;22004;49.120;-0.200;2023-04-07T07:57:33;9.70;;;2.33;;
35909;SDS011;22004;49.120;-0.200;2023-04-07T07:59:58;6.90;;;2.15;;
35909;SDS011;22004;49.120;-0.200;2023-04-07T08:02:23;10.27;;;2.10;;
35909;SDS011;22004;49.120;-0.200;2023-04-07T08:04:54;10.32;;;2.13;;
35909;SDS011;22004;49.120;-0.200;2023-04-07T08:07:20;13.10;;;2.33;;
35909;SDS011;22004;49.120;-0.200;2023-04-07T08:09:45;6.25;;;1.75;;
35909;SDS011;22004;49.120;-0.200;2023-04-07T08:12:11;9.48;;;1.90;;
35909;SDS011;22004;49.120;-0.200;2023-04-07T08:14:36;9.73;;;1.77;;
35909;SDS011;22004;49.120;-0.200;2023-04-07T08:17:01;11.90;;;1.90;;
35909;SDS011;22004;49.120;-0.200;2023-04-07T08:19:27;6.35;;;1.60;;
35909;SDS011;22004;49.120;-0.200;2023-04-07T08:21:52;8.77;;;1.70;;
35909;SDS011;22004;49.120;-0.200;2023-04-07T08:24:18;6.95;;;1.70;;
35909;SDS011;22004;49.120;-0.200;2023-04-07T08:26:43;8.40;;;1.35;;
35909;SDS011;22004;49.120;-0.200;2023-04-07T08:29:09;7.25;;;2.15;;
35909;SDS011;22004;49.120;-0.200;2023-04-07T08:31:35;5.90;;;1.92;;
35909;SDS011;22004;49.120;-0.200;2023-04-07T08:34:00;12.43;;;2.17;;
35909;SDS011;22004;49.120;-0.200;2023-04-07T08:36:25;9.18;;;1.90;;
35909;SDS011;22004;49.120;-0.200;2023-04-07T08:38:52;7.00;;;1.60;;
35909;SDS011;22004;49.120;-0.200;2023-04-07T08:44:14;6.65;;;1.55;;
35909;SDS011;22004;49.120;-0.200;2023-04-07T08:46:40;10.20;;;2.17;;
35909;SDS011;22004;49.120;-0.200;2023-04-07T08:49:08;12.85;;;1.80;;
35909;SDS011;22004;49.120;-0.200;2023-04-07T08:51:35;12.50;;;1.90;;
35909;SDS011;22004;49.120;-0.200;2023-04-07T08:54:04;6.85;;;1.65;;
35909;SDS011;22004;49.120;-0.200;2023-04-07T08:56:33;7.60;;;1.92;;
35909;SDS011;22004;49.120;-0.200;2023-04-07T08:59:03;8.10;;;1.83;;
35909;SDS011;22004;49.120;-0.200;2023-04-07T09:01:30;10.77;;;2.10;;
35909;SDS011;22004;49.120;-0.200;2023-04-07T09:03:57;7.25;;;1.70;;
35909;SDS011;22004;49.120;-0.200;2023-04-07T09:06:23;7.95;;;1.55;;
35909;SDS011;22004;49.120;-0.200;2023-04-07T09:08:51;6.97;;;1.50;;
35909;SDS011;22004;49.120;-0.200;2023-04-07T09:11:16;8.55;;;1.80;;
35909;SDS011;22004;49.120;-0.200;2023-04-07T09:13:41;5.15;;;1.42;;
35909;SDS011;22004;49.120;-0.200;2023-04-07T09:16:07;8.35;;;1.67;;
35909;SDS011;22004;49.120;-0.200;2023-04-07T09:18:32;10.25;;;1.80;;
35909;SDS011;22004;49.120;-0.200;2023-04-07T09:21:02;9.40;;;1.40;;
35909;SDS011;22004;49.120;-0.200;2023-04-07T09:23:36;7.00;;;1.42;;
35909;SDS011;22004;49.120;-0.200;2023-04-07T09:28:58;6.03;;;1.50;;
35909;SDS011;22004;49.120;-0.200;2023-04-07T09:31:43;17.88;;;2.47;;
35909;SDS011;22004;49.120;-0.200;2023-04-07T09:34:23;6.97;;;1.65;;
35909;SDS011;22004;49.120;-0.200;2023-04-07T09:36:48;10.63;;;1.95;;
35909;SDS011;22004;49.120;-0.200;2023-04-07T09:39:13;8.00;;;1.58;;
35909;SDS011;22004;49.120;-0.200;2023-04-07T09:41:39;12.32;;;1.80;;
35909;SDS011;22004;49.120;-0.200;2023-04-07T09:44:05;11.05;;;1.75;;
35909;SDS011;22004;49.120;-0.200;2023-04-07T09:46:30;6.15;;;1.45;;
35909;SDS011;22004;49.120;-0.200;2023-04-07T09:49:03;13.70;;;2.20;;
35909;SDS011;22004;49.120;-0.200;2023-04-07T09:51:32;12.95;;;1.70;;
35909;SDS011;22004;49.120;-0.200;2023-04-07T09:54:00;5.30;;;1.67;;
35909;SDS011;22004;49.120;-0.200;2023-04-07T09:56:25;10.15;;;1.60;;
35909;SDS011;22004;49.120;-0.200;2023-04-07T09:58:53;11.57;;;1.55;;
35909;SDS011;22004;49.120;-0.200;2023-04-07T10:01:19;9.20;;;1.38;;
35909;SDS011;22004;49.120;-0.200;2023-04-07T10:03:46;10.07;;;2.13;;
35909;SDS011;22004;49.120;-0.200;2023-04-07T10:06:12;9.77;;;1.60;;
35909;SDS011;22004;49.120;-0.200;2023-04-07T10:08:39;7.43;;;1.25;;
35909;SDS011;22004;49.120;-0.200;2023-04-07T10:11:05;8.82;;;1.60;;
35909;SDS011;22004;49.120;-0.200;2023-04-07T10:13:32;9.20;;;1.50;;
35909;SDS011;22004;49.120;-0.200;2023-04-07T10:16:00;9.23;;;1.83;;
35909;SDS011;22004;49.120;-0.200;2023-04-07T10:18:33;12.55;;;2.30;;
35909;SDS011;22004;49.120;-0.200;2023-04-07T10:21:01;7.80;;;1.35;;
35909;SDS011;22004;49.120;-0.200;2023-04-07T10:23:47;5.78;;;1.50;;
35909;SDS011;22004;49.120;-0.200;2023-04-07T10:26:33;9.20;;;1.48;;
35909;SDS011;22004;49.120;-0.200;2023-04-07T10:29:05;11.02;;;1.75;;
35909;SDS011;22004;49.120;-0.200;2023-04-07T10:31:35;8.75;;;1.45;;
35909;SDS011;22004;49.120;-0.200;2023-04-07T10:34:02;10.38;;;1.60;;
35909;SDS011;22004;49.120;-0.200;2023-04-07T10:36:28;7.60;;;1.52;;
35909;SDS011;22004;49.120;-0.200;2023-04-07T10:43:59;7.72;;;1.27;;
35909;SDS011;22004;49.120;-0.200;2023-04-07T10:46:24;6.30;;;1.38;;
35909;SDS011;22004;49.120;-0.200;2023-04-07T10:49:08;8.98;;;1.90;;
35909;SDS011;22004;49.120;-0.200;2023-04-07T10:51:34;10.02;;;1.77;;
35909;SDS011;22004;49.120;-0.200;2023-04-07T10:54:15;7.15;;;1.63;;
35909;SDS011;22004;49.120;-0.200;2023-04-07T10:59:26;5.85;;;1.50;;
35909;SDS011;22004;49.120;-0.200;2023-04-07T11:04:37;8.43;;;1.75;;
35909;SDS011;22004;49.120;-0.200;2023-04-07T11:07:03;12.27;;;1.80;;
35909;SDS011;22004;49.120;-0.200;2023-04-07T11:09:29;8.43;;;1.75;;
35909;SDS011;22004;49.120;-0.200;2023-04-07T11:11:54;4.40;;;1.55;;
35909;SDS011;22004;49.120;-0.200;2023-04-07T11:16:52;6.05;;;1.27;;
35909;SDS011;22004;49.120;-0.200;2023-04-07T11:19:18;6.65;;;1.55;;
35909;SDS011;22004;49.120;-0.200;2023-04-07T11:21:43;9.40;;;1.77;;
35909;SDS011;22004;49.120;-0.200;2023-04-07T11:24:09;8.40;;;1.10;;
35909;SDS011;22004;49.120;-0.200;2023-04-07T11:26:38;5.07;;;1.42;;
35909;SDS011;22004;49.120;-0.200;2023-04-07T11:29:05;6.35;;;1.33;;
35909;SDS011;22004;49.120;-0.200;2023-04-07T11:31:32;11.38;;;2.03;;
35909;SDS011;22004;49.120;-0.200;2023-04-07T11:34:01;9.70;;;1.92;;
35909;SDS011;22004;49.120;-0.200;2023-04-07T11:36:29;12.65;;;1.77;;
35909;SDS011;22004;49.120;-0.200;2023-04-07T11:38:59;10.57;;;2.08;;
35909;SDS011;22004;49.120;-0.200;2023-04-07T11:41:26;8.52;;;1.52;;
35909;SDS011;22004;49.120;-0.200;2023-04-07T11:44:07;11.18;;;1.50;;
35909;SDS011;22004;49.120;-0.200;2023-04-07T11:46:34;6.30;;;1.45;;
35909;SDS011;22004;49.120;-0.200;2023-04-07T11:49:10;4.85;;;1.17;;
35909;SDS011;22004;49.120;-0.200;2023-04-07T11:51:39;6.80;;;1.52;;
35909;SDS011;22004;49.120;-0.200;2023-04-07T11:54:07;4.80;;;1.00;;
35909;SDS011;22004;49.120;-0.200;2023-04-07T11:56:42;11.52;;;1.85;;
35909;SDS011;22004;49.120;-0.200;2023-04-07T11:59:23;6.30;;;1.50;;
35909;SDS011;22004;49.120;-0.200;2023-04-07T12:01:50;8.85;;;1.30;;
35909;SDS011;22004;49.120;-0.200;2023-04-07T12:04:16;7.32;;;1.25;;
35909;SDS011;22004;49.120;-0.200;2023-04-07T12:06:43;5.70;;;1.10;;
35909;SDS011;22004;49.120;-0.200;2023-04-07T12:09:29;10.75;;;1.80;;
35909;SDS011;22004;49.120;-0.200;2023-04-07T12:11:58;10.13;;;2.00;;
35909;SDS011;22004;49.120;-0.200;2023-04-07T12:14:24;6.18;;;1.40;;
35909;SDS011;22004;49.120;-0.200;2023-04-07T12:16:50;4.72;;;1.70;;
35909;SDS011;22004;49.120;-0.200;2023-04-07T12:19:16;9.48;;;1.40;;
35909;SDS011;22004;49.120;-0.200;2023-04-07T12:21:42;8.73;;;1.85;;
35909;SDS011;22004;49.120;-0.200;2023-04-07T12:24:07;4.95;;;1.30;;
35909;SDS011;22004;49.120;-0.200;2023-04-07T12:26:33;7.22;;;1.60;;
35909;SDS011;22004;49.120;-0.200;2023-04-07T12:28:58;6.13;;;1.40;;
35909;SDS011;22004;49.120;-0.200;2023-04-07T12:31:29;6.40;;;1.60;;
35909;SDS011;22004;49.120;-0.200;2023-04-07T12:33:57;9.57;;;1.35;;
35909;SDS011;22004;49.120;-0.200;2023-04-07T12:36:23;10.60;;;1.70;;
35909;SDS011;22004;49.120;-0.200;2023-04-07T12:38:51;10.23;;;1.60;;
35909;SDS011;22004;49.120;-0.200;2023-04-07T12:41:17;5.93;;;1.45;;
35909;SDS011;22004;49.120;-0.200;2023-04-07T12:43:43;9.23;;;1.42;;
35909;SDS011;22004;49.120;-0.200;2023-04-07T12:46:08;10.15;;;1.45;;
35909;SDS011;22004;49.120;-0.200;2023-04-07T12:48:33;8.45;;;1.65;;
35909;SDS011;22004;49.120;-0.200;2023-04-07T12:50:59;6.05;;;1.30;;
35909;SDS011;22004;49.120;-0.200;2023-04-07T12:53:25;7.03;;;1.70;;
35909;SDS011;22004;49.120;-0.200;2023-04-07T12:55:51;9.43;;;1.70;;
35909;SDS011;22004;49.120;-0.200;2023-04-07T12:58:16;6.63;;;1.48;;
35909;SDS011;22004;49.120;-0.200;2023-04-07T13:00:43;13.88;;;1.92;;
35909;SDS011;22004;49.120;-0.200;2023-04-07T13:03:09;9.35;;;1.55;;
35909;SDS011;22004;49.120;-0.200;2023-04-07T13:05:34;9.25;;;1.75;;
35909;SDS011;22004;49.120;-0.200;2023-04-07T13:07:59;4.97;;;1.13;;
35909;SDS011;22004;49.120;-0.200;2023-04-07T13:10:25;7.85;;;1.80;;
35909;SDS011;22004;49.120;-0.200;2023-04-07T13:12:51;12.27;;;2.10;;
35909;SDS011;22004;49.120;-0.200;2023-04-07T13:15:17;14.75;;;2.25;;
35909;SDS011;22004;49.120;-0.200;2023-04-07T13:17:43;5.70;;;1.45;;
35909;SDS011;22004;49.120;-0.200;2023-04-07T13:20:08;9.50;;;1.58;;
35909;SDS011;22004;49.120;-0.200;2023-04-07T13:22:34;7.53;;;1.50;;
35909;SDS011;22004;49.120;-0.200;2023-04-07T13:24:59;14.52;;;1.90;;
35909;SDS011;22004;49.120;-0.200;2023-04-07T13:27:25;9.20;;;1.90;;
35909;SDS011;22004;49.120;-0.200;2023-04-07T13:29:51;9.10;;;1.80;;
35909;SDS011;22004;49.120;-0.200;2023-04-07T13:32:16;5.03;;;1.27;;
35909;SDS011;22004;49.120;-0.200;2023-04-07T13:34:42;10.48;;;1.80;;
35909;SDS011;22004;49.120;-0.200;2023-04-07T13:37:08;12.02;;;1.65;;
35909;SDS011;22004;49.120;-0.200;2023-04-07T13:39:34;11.20;;;2.08;;
35909;SDS011;22004;49.120;-0.200;2023-04-07T13:41:59;6.22;;;1.77;;
35909;SDS011;22004;49.120;-0.200;2023-04-07T13:44:25;8.55;;;1.90;;
35909;SDS011;22004;49.120;-0.200;2023-04-07T13:46:51;11.55;;;1.58;;
35909;SDS011;22004;49.120;-0.200;2023-04-07T13:49:17;10.45;;;1.80;;
35909;SDS011;22004;49.120;-0.200;2023-04-07T13:51:43;12.60;;;2.30;;
35909;SDS011;22004;49.120;-0.200;2023-04-07T13:54:08;5.75;;;1.75;;
35909;SDS011;22004;49.120;-0.200;2023-04-07T13:56:34;12.80;;;2.00;;
35909;SDS011;22004;49.120;-0.200;2023-04-07T13:59:02;8.40;;;1.67;;
35909;SDS011;22004;49.120;-0.200;2023-04-07T14:01:28;8.50;;;1.83;;
35909;SDS011;22004;49.120;-0.200;2023-04-07T14:03:53;9.25;;;1.88;;
35909;SDS011;22004;49.120;-0.200;2023-04-07T14:06:19;5.78;;;1.48;;
35909;SDS011;22004;49.120;-0.200;2023-04-07T14:08:48;10.13;;;1.75;;
35909;SDS011;22004;49.120;-0.200;2023-04-07T14:11:17;15.63;;;2.72;;
35909;SDS011;22004;49.120;-0.200;2023-04-07T14:13:42;6.07;;;1.35;;
35909;SDS011;22004;49.120;-0.200;2023-04-07T14:16:08;7.80;;;1.45;;
35909;SDS011;22004;49.120;-0.200;2023-04-07T14:18:33;9.60;;;1.50;;
35909;SDS011;22004;49.120;-0.200;2023-04-07T14:20:59;7.90;;;1.60;;
35909;SDS011;22004;49.120;-0.200;2023-04-07T14:23:25;7.35;;;1.95;;
35909;SDS011;22004;49.120;-0.200;2023-04-07T14:25:51;9.80;;;1.50;;
35909;SDS011;22004;49.120;-0.200;2023-04-07T14:28:16;13.65;;;1.98;;
35909;SDS011;22004;49.120;-0.200;2023-04-07T14:30:41;8.85;;;1.80;;
35909;SDS011;22004;49.120;-0.200;2023-04-07T14:33:07;7.15;;;1.50;;
35909;SDS011;22004;49.120;-0.200;2023-04-07T14:35:35;10.43;;;1.85;;
35909;SDS011;22004;49.120;-0.200;2023-04-07T14:38:01;8.20;;;1.73;;
35909;SDS011;22004;49.120;-0.200;2023-04-07T14:40:26;11.18;;;1.73;;
35909;SDS011;22004;49.120;-0.200;2023-04-07T14:42:51;11.52;;;2.17;;
35909;SDS011;22004;49.120;-0.200;2023-04-07T14:45:17;10.90;;;1.70;;
35909;SDS011;22004;49.120;-0.200;2023-04-07T14:47:42;8.50;;;1.92;;
35909;SDS011;22004;49.120;-0.200;2023-04-07T14:50:08;13.57;;;2.15;;
35909;SDS011;22004;49.120;-0.200;2023-04-07T14:52:34;8.60;;;2.10;;
35909;SDS011;22004;49.120;-0.200;2023-04-07T14:54:59;11.23;;;1.95;;
35909;SDS011;22004;49.120;-0.200;2023-04-07T14:57:25;9.02;;;1.75;;